createdAt,value
2023-01-02T00:02:07.632Z,10.43
2023-01-02T00:04:35.192Z,10.46
2023-01-02T00:07:01.772Z,10.46
2023-01-02T00:09:28.217Z,10.47
2023-01-02T00:11:54.733Z,10.45
2023-01-02T00:14:21.178Z,10.42
2023-01-02T00:16:47.727Z,10.40
2023-01-02T00:19:14.134Z,10.38
2023-01-02T00:21:40.578Z,10.37
2023-01-02T00:24:07.488Z,10.35
2023-01-02T00:26:33.928Z,10.35
2023-01-02T00:29:01.336Z,10.33
2023-01-02T00:31:27.894Z,10.34
2023-01-02T00:33:54.799Z,10.33
2023-01-02T00:36:21.494Z,10.33
2023-01-02T00:38:48.245Z,10.32
2023-01-02T00:41:14.756Z,10.32
2023-01-02T00:43:43.498Z,10.31
2023-01-02T00:46:12.161Z,10.29
2023-01-02T00:48:39.990Z,10.29
2023-01-02T00:51:06.583Z,10.26
2023-01-02T00:53:33.147Z,10.25
2023-01-02T00:55:59.801Z,10.23
2023-01-02T00:58:26.378Z,10.22
2023-01-02T01:00:53.107Z,10.21
2023-01-02T01:03:19.666Z,10.20
2023-01-02T01:05:46.213Z,10.20
2023-01-02T01:08:13.317Z,10.21
2023-01-02T01:10:39.969Z,10.24
2023-01-02T01:13:06.851Z,10.26
2023-01-02T01:15:34.586Z,10.29
2023-01-02T01:18:01.387Z,10.31
2023-01-02T01:20:27.962Z,10.31
2023-01-02T01:22:54.516Z,10.34
2023-01-02T01:25:21.254Z,10.36
2023-01-02T01:27:47.833Z,10.40
2023-01-02T01:30:14.321Z,10.42
2023-01-02T01:32:40.829Z,10.45
2023-01-02T01:35:07.868Z,10.44
2023-01-02T01:37:34.587Z,10.45
2023-01-02T01:40:01.091Z,10.46
2023-01-02T01:42:34.652Z,10.49
2023-01-02T01:45:01.271Z,10.50
2023-01-02T01:47:42.410Z,10.49
2023-01-02T01:50:11.792Z,10.48
2023-01-02T01:52:47.878Z,10.47
2023-01-02T01:55:21.930Z,10.47
2023-01-02T01:57:58.628Z,10.46
2023-01-02T02:00:25.224Z,10.46
2023-01-02T02:02:57.461Z,10.44
2023-01-02T02:05:26.770Z,10.45
2023-01-02T02:08:12.492Z,10.45
2023-01-02T02:10:39.029Z,10.47
2023-01-02T02:13:05.487Z,10.48
2023-01-02T02:15:57.514Z,10.49
2023-01-02T02:19:04.485Z,10.50
2023-01-02T02:21:56.192Z,10.51
2023-01-02T02:24:53.680Z,10.53
2023-01-02T02:28:01.862Z,10.55
2023-01-02T02:30:46.779Z,10.56
2023-01-02T02:33:34.806Z,10.59
2023-01-02T02:36:30.507Z,10.65
2023-01-02T02:39:05.098Z,10.67
2023-01-02T02:41:44.185Z,10.70
2023-01-02T02:44:43.030Z,10.72
2023-01-02T02:47:15.498Z,10.73
2023-01-02T02:50:17.082Z,10.73
2023-01-02T02:52:58.274Z,10.78
2023-01-02T02:55:44.856Z,10.82
2023-01-02T02:58:34.658Z,10.85
2023-01-02T03:01:20.058Z,10.88
2023-01-02T03:03:49.733Z,10.92
2023-01-02T03:06:38.185Z,10.95
2023-01-02T03:09:33.759Z,10.99
2023-01-02T03:12:27.834Z,11.01
2023-01-02T03:15:22.714Z,11.02
2023-01-02T03:18:11.822Z,11.05
2023-01-02T03:20:49.541Z,11.10
2023-01-02T03:23:25.561Z,11.13
2023-01-02T03:26:16.605Z,11.14
2023-01-02T03:29:01.341Z,11.17
2023-01-02T03:31:37.813Z,11.20
2023-01-02T03:34:08.806Z,11.23
2023-01-02T03:36:39.377Z,11.26
2023-01-02T03:39:32.520Z,11.26
2023-01-02T03:42:07.831Z,11.31
2023-01-02T03:44:41.888Z,11.28
2023-01-02T03:47:14.447Z,11.31
2023-01-02T03:49:45.885Z,11.36
2023-01-02T03:52:14.510Z,11.36
2023-01-02T03:54:41.055Z,11.37
2023-01-02T03:57:22.300Z,11.39
2023-01-02T03:59:57.940Z,11.39
2023-01-02T04:02:32.437Z,11.41
2023-01-02T04:05:06.831Z,11.41
2023-01-02T04:07:41.513Z,11.44
2023-01-02T04:10:11.116Z,11.45
2023-01-02T04:12:41.172Z,11.46
2023-01-02T04:15:13.868Z,11.46
2023-01-02T04:17:51.158Z,11.46
2023-01-02T04:20:22.940Z,11.44
2023-01-02T04:23:02.388Z,11.43
2023-01-02T04:25:41.318Z,11.42
2023-01-02T04:28:27.060Z,11.42
2023-01-02T04:31:09.652Z,11.43
2023-01-02T04:33:50.069Z,11.41
2023-01-02T04:36:17.145Z,11.38
2023-01-02T04:38:45.212Z,11.39
2023-01-02T04:41:27.147Z,11.39
2023-01-02T04:43:57.254Z,11.39
2023-01-02T04:46:25.216Z,11.36
2023-01-02T04:48:52.892Z,11.33
2023-01-02T04:51:19.497Z,11.32
2023-01-02T04:53:52.618Z,11.31
2023-01-02T04:56:19.779Z,11.29
2023-01-02T04:58:49.491Z,11.28
2023-01-02T05:01:19.034Z,11.31
2023-01-02T05:03:47.921Z,11.32
2023-01-02T05:06:15.754Z,11.31
2023-01-02T05:08:42.697Z,11.30
2023-01-02T05:11:15.078Z,11.32
2023-01-02T05:13:42.154Z,11.31
2023-01-02T05:16:09.198Z,11.31
2023-01-02T05:18:36.253Z,11.27
2023-01-02T05:21:05.210Z,11.27
2023-01-02T05:23:52.434Z,11.30
2023-01-02T05:26:18.986Z,11.33
2023-01-02T05:28:45.494Z,11.33
2023-01-02T05:31:12.493Z,11.35
2023-01-02T05:33:39.102Z,11.34
2023-01-02T05:36:07.892Z,11.33
2023-01-02T05:38:35.876Z,11.31
2023-01-02T06:17:26.469Z,9.95
2023-01-02T06:30:41.206Z,9.67
2023-01-02T06:32:33.682Z,9.55
2023-01-02T07:01:25.440Z,9.28
2023-01-02T07:03:58.047Z,9.24
2023-01-02T07:06:35.988Z,9.24
2023-01-02T07:09:44.288Z,9.24
2023-01-02T07:13:28.911Z,9.22
2023-01-02T07:16:24.270Z,9.24
2023-01-02T07:19:24.789Z,9.24
2023-01-02T07:26:18.912Z,9.16
2023-01-02T07:28:50.501Z,9.12
2023-01-02T07:31:28.513Z,9.10
2023-01-02T07:34:09.875Z,9.11
2023-01-02T07:37:06.718Z,9.07
2023-01-02T07:46:42.858Z,9.02
2023-01-02T07:50:14.918Z,8.99
2023-01-02T07:56:39.268Z,8.96
2023-01-02T08:12:59.612Z,8.92
2023-01-02T08:19:38.553Z,8.78
2023-01-02T08:22:05.071Z,8.80
2023-01-02T08:24:56.688Z,8.80
2023-01-02T08:27:23.875Z,8.78
2023-01-02T08:30:41.017Z,8.79
2023-01-02T08:33:30.669Z,8.82
2023-01-02T08:52:12.836Z,8.79
2023-01-02T09:01:51.481Z,8.82
2023-01-02T09:04:26.882Z,8.82
2023-01-02T09:17:09.642Z,8.80
2023-01-02T09:22:44.868Z,8.89
2023-01-02T09:28:21.982Z,8.92
2023-01-02T09:30:48.702Z,8.93
2023-01-02T09:33:15.340Z,8.95
2023-01-02T09:35:42.048Z,9.01
2023-01-02T09:38:08.996Z,9.06
2023-01-02T09:40:54.052Z,9.10
2023-01-02T09:43:49.633Z,9.09
2023-01-02T09:46:31.941Z,9.01
2023-01-02T09:49:01.569Z,9.06
2023-01-02T09:51:28.990Z,9.04
2023-01-02T09:53:55.787Z,9.00
2023-01-02T09:56:37.448Z,8.97
2023-01-02T09:59:47.996Z,8.87
2023-01-02T10:02:31.375Z,8.87
2023-01-02T10:05:13.199Z,8.85
2023-01-02T10:08:11.747Z,8.80
2023-01-02T10:10:44.127Z,8.80
2023-01-02T10:13:20.903Z,8.83
2023-01-02T10:15:54.399Z,8.87
2023-01-02T10:18:50.243Z,8.80
2023-01-02T10:21:30.365Z,8.86
2023-01-02T10:24:07.033Z,8.85
2023-01-02T10:26:39.117Z,8.92
2023-01-02T10:29:16.171Z,8.96
2023-01-02T10:31:48.619Z,9.00
2023-01-02T10:34:21.718Z,9.09
2023-01-02T10:36:49.654Z,9.13
2023-01-02T10:39:19.165Z,9.12
2023-01-02T10:41:50.241Z,9.16
2023-01-02T10:44:30.657Z,9.23
2023-01-02T10:46:59.550Z,9.13
2023-01-02T10:49:30.760Z,9.01
2023-01-02T10:52:14.378Z,9.02
2023-01-02T10:54:59.582Z,9.00
2023-01-02T10:57:42.119Z,8.98
2023-01-02T11:00:23.909Z,9.05
2023-01-02T11:03:01.645Z,9.09
2023-01-02T11:05:30.758Z,9.10
2023-01-02T11:07:57.842Z,9.11
2023-01-02T11:10:30.109Z,9.10
2023-01-02T11:13:01.522Z,9.06
2023-01-02T11:15:35.947Z,9.02
2023-01-02T11:18:11.536Z,9.05
2023-01-02T11:20:38.352Z,9.12
2023-01-02T11:23:05.954Z,9.11
2023-01-02T11:25:39.092Z,9.11
2023-01-02T11:28:06.453Z,9.11
2023-01-02T11:30:43.056Z,9.15
2023-01-02T11:33:24.952Z,9.16
2023-01-02T11:36:12.393Z,9.15
2023-01-02T11:38:45.105Z,9.15
2023-01-02T11:41:50.769Z,9.08
2023-01-02T11:44:31.826Z,9.02
2023-01-02T11:46:59.790Z,9.07
2023-01-02T11:49:34.506Z,9.18
2023-01-02T11:52:05.877Z,9.26
2023-01-02T11:54:53.269Z,9.17
2023-01-02T11:57:49.099Z,9.20
2023-01-02T12:00:19.223Z,9.24
2023-01-02T12:02:56.175Z,9.21
2023-01-02T12:05:38.551Z,9.23
2023-01-02T12:08:19.938Z,9.17
2023-01-02T12:11:06.932Z,9.14
2023-01-02T12:13:50.742Z,9.19
2023-01-02T12:16:48.767Z,9.21
2023-01-02T12:19:48.405Z,9.10
2023-01-02T12:22:21.089Z,9.13
2023-01-02T12:25:01.119Z,9.20
2023-01-02T12:28:14.173Z,9.24
2023-01-02T12:30:53.287Z,9.25
2023-01-02T12:33:50.749Z,9.28
2023-01-02T12:36:52.664Z,9.28
2023-01-02T12:39:35.690Z,9.29
2023-01-02T12:42:56.539Z,9.24
2023-01-02T12:45:39.190Z,9.28
2023-01-02T12:48:34.943Z,9.25
2023-01-02T12:51:15.680Z,9.23
2023-01-02T12:54:20.212Z,9.20
2023-01-02T12:57:21.749Z,9.22
2023-01-02T13:00:21.698Z,9.16
2023-01-02T13:03:10.629Z,9.18
2023-01-02T13:05:46.221Z,9.17
2023-01-02T13:08:30.053Z,9.22
2023-01-02T13:59:41.518Z,8.67
2023-01-02T14:02:20.200Z,8.67
2023-01-02T14:04:47.173Z,8.65
2023-01-02T14:07:26.056Z,8.67
2023-01-02T14:10:14.450Z,8.69
2023-01-02T14:13:05.612Z,8.60
2023-01-02T14:15:37.300Z,8.61
2023-01-02T14:18:10.920Z,8.60
2023-01-02T14:20:43.808Z,8.63
2023-01-02T14:23:23.214Z,8.65
2023-01-02T14:25:50.408Z,8.65
2023-01-02T14:28:29.117Z,8.63
2023-01-02T14:30:57.804Z,8.62
2023-01-02T14:33:36.105Z,8.63
2023-01-02T14:36:10.437Z,8.58
2023-01-02T14:38:50.852Z,8.57
2023-01-02T14:42:10.244Z,8.58
2023-01-02T14:44:56.513Z,8.56
2023-01-02T14:47:34.588Z,8.55
2023-01-02T14:50:04.467Z,8.53
2023-01-02T14:52:37.338Z,8.55
2023-01-02T14:55:14.352Z,8.57
2023-01-02T14:57:44.844Z,8.60
2023-01-02T15:00:32.093Z,8.60
2023-01-02T15:03:17.731Z,8.60
2023-01-02T15:05:49.696Z,8.57
2023-01-02T15:08:20.793Z,8.54
2023-01-02T15:10:56.331Z,8.54
2023-01-02T15:13:27.008Z,8.51
2023-01-02T15:15:58.595Z,8.51
2023-01-02T15:18:34.132Z,8.49
2023-01-02T15:21:08.834Z,8.46
2023-01-02T15:23:38.304Z,8.46
2023-01-02T15:26:31.824Z,8.43
2023-01-02T15:29:23.738Z,8.42
2023-01-02T15:31:52.324Z,8.38
2023-01-02T15:34:25.260Z,8.37
2023-01-02T15:36:52.755Z,8.37
2023-01-02T15:39:27.991Z,8.34
2023-01-02T15:41:57.363Z,8.35
2023-01-02T15:44:46.143Z,8.34
2023-01-02T15:47:14.615Z,8.34
2023-01-02T15:49:44.085Z,8.35
2023-01-02T15:52:34.857Z,8.34
2023-01-02T15:55:02.245Z,8.34
2023-01-02T15:57:32.215Z,8.31
2023-01-02T15:59:59.536Z,8.31
2023-01-02T16:02:46.364Z,8.26
2023-01-02T16:05:18.832Z,8.25
2023-01-02T16:07:50.842Z,8.23
2023-01-02T16:10:22.442Z,8.22
2023-01-02T16:12:55.999Z,8.20
2023-01-02T16:15:28.400Z,8.19
2023-01-02T16:17:56.264Z,8.17
2023-01-02T16:20:24.773Z,8.15
2023-01-02T16:22:59.703Z,8.18
2023-01-02T16:25:42.667Z,8.17
2023-01-02T16:28:35.107Z,8.13
2023-01-02T16:31:15.277Z,8.08
2023-01-02T16:33:43.942Z,8.00
2023-01-02T16:36:20.598Z,7.97
2023-01-02T16:38:50.198Z,7.95
2023-01-02T16:41:34.802Z,7.93
2023-01-02T16:44:03.254Z,7.90
2023-01-02T16:46:30.673Z,7.91
2023-01-02T16:49:03.123Z,7.94
2023-01-02T16:51:32.027Z,7.98
2023-01-02T16:53:58.917Z,7.98
2023-01-02T16:56:25.722Z,7.98
2023-01-02T16:58:54.843Z,7.93
2023-01-02T17:01:22.866Z,7.91
2023-01-02T17:03:49.506Z,7.89
2023-01-02T17:06:19.019Z,7.87
2023-01-02T17:08:45.851Z,7.85
2023-01-02T17:11:22.679Z,7.86
2023-01-02T17:13:50.881Z,7.86
2023-01-02T17:16:18.764Z,7.88
2023-01-02T17:18:45.791Z,7.89
2023-01-02T17:21:13.195Z,7.86
2023-01-02T17:23:40.543Z,7.79
2023-01-02T17:26:07.273Z,7.72
2023-01-02T17:28:34.054Z,7.65
2023-01-02T17:31:01.044Z,7.56
2023-01-02T17:33:27.595Z,7.48
2023-01-02T17:35:54.191Z,7.39
2023-01-02T17:38:20.810Z,7.33
2023-01-02T17:40:47.583Z,7.28
2023-01-02T17:43:15.093Z,7.21
2023-01-02T17:45:42.769Z,7.15
2023-01-02T17:48:12.351Z,7.08
2023-01-02T17:50:40.952Z,7.02
2023-01-02T17:53:08.262Z,6.95
2023-01-02T17:55:35.409Z,6.88
2023-01-02T17:58:03.592Z,6.85
2023-01-02T18:00:30.126Z,6.82
2023-01-02T18:02:57.002Z,6.79
2023-01-02T18:05:23.635Z,6.75
2023-01-02T18:07:50.326Z,6.70
2023-01-02T18:10:20.615Z,6.66
2023-01-02T18:12:49.889Z,6.65
2023-01-02T18:15:19.680Z,6.60
2023-01-02T18:17:46.699Z,6.56
2023-01-02T18:20:18.763Z,6.50
2023-01-02T18:22:50.198Z,6.47
2023-01-02T18:25:27.309Z,6.43
2023-01-02T18:28:05.055Z,6.37
2023-01-02T18:30:31.589Z,6.32
2023-01-02T18:33:12.349Z,6.22
2023-01-02T18:38:38.039Z,6.03
2023-01-02T18:41:26.431Z,5.93
2023-01-02T18:44:01.448Z,5.87
2023-01-02T18:47:03.072Z,5.83
2023-01-02T18:49:25.217Z,5.79
2023-01-02T18:52:00.982Z,5.74
2023-01-02T18:54:31.354Z,5.70
2023-01-02T19:06:16.145Z,5.58
2023-01-02T19:08:42.828Z,5.51
2023-01-02T19:11:37.007Z,5.46
2023-01-02T19:14:26.332Z,5.41
2023-01-02T19:17:20.439Z,5.37
2023-01-02T19:19:47.440Z,5.31
2023-01-02T19:22:18.087Z,5.27
2023-01-02T19:24:47.785Z,5.24
2023-01-02T19:27:27.164Z,5.20
2023-01-02T19:29:54.152Z,5.20
2023-01-02T19:32:33.073Z,5.23
2023-01-02T19:35:26.106Z,5.24
2023-01-02T19:37:52.594Z,5.23
2023-01-02T19:40:24.652Z,5.23
2023-01-02T19:42:54.162Z,5.16
2023-01-02T19:45:26.441Z,5.14
2023-01-02T19:47:53.988Z,5.12
2023-01-02T19:50:26.331Z,5.08
2023-01-02T19:52:55.312Z,5.04
2023-01-02T19:55:22.491Z,5.03
2023-01-02T19:57:53.069Z,5.02
2023-01-02T20:00:20.050Z,5.04
2023-01-02T20:02:56.653Z,5.04
2023-01-02T20:05:25.418Z,5.02
2023-01-02T20:07:53.143Z,5.01
2023-01-02T20:10:30.186Z,4.94
2023-01-02T20:12:56.717Z,4.89
2023-01-02T20:15:29.849Z,4.89
2023-01-02T20:18:05.020Z,4.87
2023-01-02T20:20:34.688Z,4.84
2023-01-02T20:23:04.585Z,4.82
2023-01-02T20:25:31.508Z,4.80
2023-01-02T20:28:00.475Z,4.79
2023-01-02T20:30:27.062Z,4.77
2023-01-02T20:32:54.134Z,4.75
2023-01-02T20:35:20.828Z,4.72
2023-01-02T20:37:47.956Z,4.68
2023-01-02T20:40:17.219Z,4.60
2023-01-02T20:42:54.026Z,4.57
2023-01-02T20:45:22.069Z,4.52
2023-01-02T20:47:48.749Z,4.50
2023-01-02T20:50:19.574Z,4.44
2023-01-02T20:52:49.984Z,4.41
2023-01-02T20:56:04.144Z,4.41
2023-01-02T20:58:39.044Z,4.44
2023-01-02T21:01:09.987Z,4.46
2023-01-02T21:03:41.440Z,4.45
2023-01-02T21:06:10.987Z,4.44
2023-01-02T21:08:37.494Z,4.40
2023-01-02T21:11:06.149Z,4.38
2023-01-02T21:13:33.244Z,4.36
2023-01-02T21:16:00.387Z,4.35
2023-01-02T21:18:37.188Z,4.30
2023-01-02T21:21:10.492Z,4.20
2023-01-02T21:23:39.912Z,4.18
2023-01-02T21:26:11.526Z,4.14
2023-01-02T21:28:40.027Z,4.08
2023-01-02T21:31:07.710Z,4.05
2023-01-02T21:33:39.446Z,4.01
2023-01-02T21:36:09.841Z,3.97
2023-01-02T21:38:38.222Z,3.96
2023-01-02T21:41:27.374Z,3.97
2023-01-02T21:43:57.127Z,3.98
2023-01-02T21:46:23.720Z,4.01
2023-01-02T21:48:51.496Z,4.01
2023-01-02T21:51:18.080Z,3.99
2023-01-02T21:53:44.764Z,3.95
2023-01-02T21:56:11.383Z,3.91
2023-01-02T21:58:37.862Z,3.92
2023-01-02T22:01:04.492Z,3.93
2023-01-02T22:03:31.159Z,3.91
2023-01-02T22:05:57.622Z,3.89
2023-01-02T22:08:24.314Z,3.87
2023-01-02T22:10:51.162Z,3.87
2023-01-02T22:13:18.627Z,3.84
2023-01-02T22:15:45.743Z,3.82
2023-01-02T22:18:12.514Z,3.77
2023-01-02T22:20:38.995Z,3.74
2023-01-02T22:23:05.471Z,3.71
2023-01-02T22:25:32.054Z,3.67
2023-01-02T22:27:59.009Z,3.61
2023-01-02T22:30:33.589Z,3.59
2023-01-02T22:33:00.973Z,3.55
2023-01-02T22:35:27.693Z,3.52
2023-01-02T22:37:59.586Z,3.50
2023-01-02T22:40:27.729Z,3.50
2023-01-02T22:43:03.937Z,3.47
2023-01-02T22:45:42.466Z,3.48
2023-01-02T22:48:21.603Z,3.49
2023-01-02T22:50:51.786Z,3.49
2023-01-02T22:53:34.764Z,3.50
2023-01-02T22:56:06.785Z,3.47
2023-01-02T22:58:33.292Z,3.42
2023-01-02T23:01:04.192Z,3.39
2023-01-02T23:03:37.929Z,3.36
2023-01-02T23:06:04.680Z,3.32
2023-01-02T23:08:31.205Z,3.29
2023-01-02T23:10:57.876Z,3.28
2023-01-02T23:13:24.343Z,3.29
2023-01-02T23:16:10.808Z,3.26
2023-01-02T23:18:57.425Z,3.27
2023-01-02T23:21:25.880Z,3.28
2023-01-02T23:23:53.019Z,3.25
2023-01-02T23:26:21.079Z,3.25
2023-01-02T23:31:39.242Z,3.19
2023-01-02T23:34:06.231Z,3.13
2023-01-02T23:36:33.019Z,3.12
2023-01-02T23:38:59.692Z,3.09
2023-01-02T23:41:26.422Z,3.06
2023-01-02T23:43:53.364Z,3.05
2023-01-02T23:46:20.072Z,3.05
2023-01-02T23:48:46.870Z,3.02
2023-01-02T23:51:13.500Z,2.97
2023-01-02T23:53:41.032Z,2.93
2023-01-02T23:56:33.259Z,2.87
2023-01-02T23:59:01.852Z,2.83
